Terminal Aerodrome Forecast
Issued by NWS

Home | Current Version | Previous Version | Text Only | Print | Product List | Glossary On
Versions: 1 2 3 4 5 6 7 8 9 10 11 12 13 14 15 16 17 18 19 20 21 22 23 24 25 26
000
FTUS42 KCAE 011100
TAFCUB
TAF
KCUB 011137Z 0112/0212 00000KT P6SM BKN150
     FM011600 18008KT P6SM SCT040 BKN120
     FM012100 18008KT P6SM OVC050
     FM020400 20012G22KT 4SM -RA SCT007 OVC025=

USA.gov is the U.S. government's official web portal to all federal, state and local government web resources and services.